Time;durP1;ratioP1;P1;durP2;ratioP2;P2;SDS_P1;SDS_P2;PMS_P1;PMS_P2;Temp;Humidity;BMP_temperature;BMP_pressure;BME280_temperature;BME280_humidity;BME280_pressure;Samples;Min_cycle;Max_cycle;Signal;HPM_P1;HPM_P2
2024/01/05 00:01:38;;;;;;;7.90;2.95;;;7.30;99.90;;;;;;6350240;28;20048;-92
2024/01/05 00:04:40;;;;;;;7.10;2.35;;;7.30;99.90;;;;;;6330529;28;20047;-87
2024/01/05 00:07:42;;;;;;;5.70;2.05;;;7.20;99.90;;;;;;6342476;27;20133;-92
2024/01/05 00:10:44;;;;;;;4.78;2.10;;;7.10;99.90;;;;;;6338940;28;20139;-90
2024/01/05 00:13:46;;;;;;;6.18;2.00;;;7.10;99.90;;;;;;6316422;28;20054;-88
2024/01/05 00:16:49;;;;;;;4.88;2.00;;;7.00;99.90;;;;;;6350184;28;20131;-89
2024/01/05 00:19:51;;;;;;;5.97;2.00;;;6.90;99.90;;;;;;6307412;28;20047;-90
2024/01/05 00:22:52;;;;;;;4.53;1.80;;;6.90;99.90;;;;;;6317975;28;20066;-89
2024/01/05 00:25:55;;;;;;;4.10;1.70;;;6.90;99.90;;;;;;6344420;28;20055;-89
2024/01/05 00:28:56;;;;;;;5.45;1.65;;;6.90;99.90;;;;;;6343567;28;20047;-89
2024/01/05 00:31:58;;;;;;;5.03;1.60;;;6.80;99.90;;;;;;6331349;28;20054;-90
2024/01/05 00:35:00;;;;;;;3.42;1.65;;;6.80;99.90;;;;;;6305787;28;20056;-89
2024/01/05 00:38:04;;;;;;;3.47;1.35;;;6.80;99.90;;;;;;6318457;28;20062;-89
2024/01/05 00:41:06;;;;;;;3.67;1.35;;;6.80;99.90;;;;;;6328278;28;20487;-89
2024/01/05 00:44:08;;;;;;;3.65;1.10;;;6.80;99.90;;;;;;6318016;28;20044;-89
2024/01/05 00:47:10;;;;;;;2.70;0.90;;;6.70;99.90;;;;;;6303026;28;20044;-89
2024/01/05 00:50:11;;;;;;;2.55;1.00;;;6.60;99.90;;;;;;6323702;28;20126;-89
2024/01/05 00:53:13;;;;;;;2.95;0.90;;;6.60;99.90;;;;;;6331493;28;20052;-88
2024/01/05 00:56:15;;;;;;;2.05;0.70;;;6.60;99.90;;;;;;6326101;28;20051;-87
2024/01/05 00:59:16;;;;;;;2.40;0.70;;;6.60;99.90;;;;;;6346577;28;20047;-89
2024/01/05 01:02:18;;;;;;;2.30;0.70;;;6.50;99.90;;;;;;6341701;28;20062;-89
2024/01/05 01:05:20;;;;;;;2.58;0.77;;;6.50;99.90;;;;;;6345764;28;20051;-90
2024/01/05 01:08:21;;;;;;;2.72;0.73;;;6.40;99.90;;;;;;6326339;28;20075;-89
2024/01/05 01:11:24;;;;;;;2.22;0.70;;;6.30;99.90;;;;;;6304070;28;20058;-88
2024/01/05 01:14:29;;;;;;;2.42;0.70;;;6.30;99.90;;;;;;6313933;28;20054;-87
2024/01/05 01:17:31;;;;;;;1.98;0.70;;;6.20;99.90;;;;;;6327717;28;20503;-89
2024/01/05 01:20:32;;;;;;;1.60;0.68;;;6.10;99.90;;;;;;6304263;28;20426;-86
2024/01/05 01:23:34;;;;;;;2.75;0.70;;;6.10;99.90;;;;;;6369534;28;20047;-87
2024/01/05 01:26:38;;;;;;;1.50;0.60;;;6.00;99.90;;;;;;6349191;28;20138;-86
2024/01/05 01:29:41;;;;;;;3.08;0.90;;;5.90;99.90;;;;;;6338235;28;20047;-87
2024/01/05 01:32:42;;;;;;;2.45;0.80;;;5.90;99.90;;;;;;6332911;28;20048;-88
2024/01/05 01:35:44;;;;;;;2.15;0.70;;;5.90;99.90;;;;;;6308475;28;20059;-89
2024/01/05 01:38:45;;;;;;;2.08;0.70;;;5.80;99.90;;;;;;6345965;28;20066;-86
2024/01/05 01:41:47;;;;;;;3.25;1.00;;;5.80;99.90;;;;;;6350458;28;20050;-86
2024/01/05 01:44:49;;;;;;;2.45;0.70;;;5.70;99.90;;;;;;6308559;28;20109;-86
2024/01/05 01:47:50;;;;;;;3.15;0.80;;;5.70;99.90;;;;;;6325481;28;20818;-87
2024/01/05 01:50:52;;;;;;;3.13;0.73;;;5.70;99.90;;;;;;6307998;28;20047;-87
2024/01/05 01:53:54;;;;;;;2.38;0.60;;;5.80;99.90;;;;;;6332566;28;20059;-86
2024/01/05 01:56:56;;;;;;;3.00;0.75;;;5.70;99.90;;;;;;6332313;28;20052;-87
2024/01/05 01:59:57;;;;;;;3.15;0.80;;;5.70;99.90;;;;;;6304068;28;20062;-86
2024/01/05 02:02:59;;;;;;;4.20;0.70;;;5.70;99.90;;;;;;6344060;28;20048;-86
2024/01/05 02:06:01;;;;;;;4.78;0.80;;;5.70;99.90;;;;;;6306675;28;20048;-85
2024/01/05 02:09:04;;;;;;;2.22;0.80;;;5.70;99.90;;;;;;6304061;28;20527;-83
2024/01/05 02:12:06;;;;;;;2.10;0.65;;;5.70;99.90;;;;;;6347507;28;20609;-86
2024/01/05 02:15:07;;;;;;;3.60;0.95;;;5.70;99.90;;;;;;6304132;28;20062;-85
2024/01/05 02:18:09;;;;;;;4.80;0.70;;;5.70;99.90;;;;;;6325168;28;20421;-87
2024/01/05 02:21:11;;;;;;;3.50;0.80;;;5.80;99.90;;;;;;6350312;27;20061;-85
2024/01/05 02:24:13;;;;;;;4.93;1.08;;;5.70;99.90;;;;;;6329652;28;20509;-84
2024/01/05 02:27:15;;;;;;;2.90;0.70;;;5.70;99.90;;;;;;6304386;28;20062;-86
2024/01/05 02:30:16;;;;;;;1.85;0.60;;;5.70;99.90;;;;;;6355929;27;20058;-87
2024/01/05 02:33:18;;;;;;;5.18;1.00;;;5.60;99.90;;;;;;6345560;27;20047;-86
2024/01/05 02:36:20;;;;;;;3.90;0.82;;;5.70;99.90;;;;;;6332951;27;20051;-86
2024/01/05 02:39:22;;;;;;;3.17;0.90;;;5.70;99.90;;;;;;6345442;27;20055;-85
2024/01/05 02:42:23;;;;;;;3.95;0.70;;;5.70;99.90;;;;;;6345211;27;20552;-86
2024/01/05 02:45:25;;;;;;;3.55;0.60;;;5.70;99.90;;;;;;6360837;27;20043;-87
2024/01/05 02:48:27;;;;;;;3.40;0.75;;;5.60;99.90;;;;;;6350265;27;20104;-87
2024/01/05 02:51:29;;;;;;;3.15;0.77;;;5.60;99.90;;;;;;6312533;28;20054;-84
2024/01/05 02:54:30;;;;;;;2.67;0.70;;;5.60;99.90;;;;;;6305160;28;20092;-87
2024/01/05 02:57:32;;;;;;;3.65;0.70;;;5.60;99.90;;;;;;6328131;28;20499;-85
2024/01/05 03:00:34;;;;;;;4.05;0.70;;;5.60;99.90;;;;;;6302315;28;20385;-85
2024/01/05 03:03:36;;;;;;;2.28;0.80;;;5.60;99.90;;;;;;6368275;27;20062;-86
2024/01/05 03:06:37;;;;;;;2.88;0.80;;;5.50;99.90;;;;;;6331852;28;20570;-86
2024/01/05 03:09:39;;;;;;;7.50;1.02;;;5.50;99.90;;;;;;6331438;27;20050;-85
2024/01/05 03:12:41;;;;;;;3.33;0.70;;;5.50;99.90;;;;;;6371795;27;20082;-87
2024/01/05 03:15:42;;;;;;;5.25;1.00;;;5.50;99.90;;;;;;6349466;27;20434;-85
2024/01/05 03:18:44;;;;;;;4.38;0.90;;;5.50;99.90;;;;;;6351679;27;20051;-86
2024/01/05 03:21:46;;;;;;;5.13;0.90;;;5.40;99.90;;;;;;6330238;27;20054;-86
2024/01/05 03:24:49;;;;;;;5.00;0.90;;;5.30;99.90;;;;;;6326234;28;20050;-87
2024/01/05 03:27:51;;;;;;;3.90;0.70;;;5.40;99.90;;;;;;6340195;27;20047;-86
2024/01/05 03:30:53;;;;;;;2.80;0.85;;;5.30;99.90;;;;;;6301420;28;20075;-85
2024/01/05 03:33:55;;;;;;;2.63;0.90;;;5.30;99.90;;;;;;6315982;28;20044;-87
2024/01/05 03:36:57;;;;;;;2.47;0.90;;;5.30;99.90;;;;;;6354082;27;20065;-85
2024/01/05 03:39:58;;;;;;;2.83;0.90;;;5.30;99.90;;;;;;6334844;27;20376;-85
2024/01/05 03:43:00;;;;;;;3.63;0.90;;;5.30;99.90;;;;;;6370347;27;20391;-86
2024/01/05 03:46:02;;;;;;;3.70;1.20;;;5.30;99.90;;;;;;6345390;28;20102;-87
2024/01/05 03:49:03;;;;;;;4.45;1.50;;;5.30;99.90;;;;;;6319957;28;20553;-85
2024/01/05 03:52:05;;;;;;;5.05;1.50;;;5.20;99.90;;;;;;6333187;28;20138;-86
2024/01/05 03:55:07;;;;;;;4.57;1.80;;;5.20;99.90;;;;;;6336019;28;20056;-87
2024/01/05 03:58:09;;;;;;;4.75;1.50;;;5.20;99.90;;;;;;6340545;28;20056;-85
2024/01/05 04:01:10;;;;;;;4.05;1.45;;;5.30;99.90;;;;;;6322040;28;20063;-86
2024/01/05 04:04:12;;;;;;;4.93;1.80;;;5.30;99.90;;;;;;6320160;28;20054;-84
2024/01/05 04:07:14;;;;;;;4.15;1.65;;;5.30;99.90;;;;;;6352047;27;20080;-86
2024/01/05 04:10:16;;;;;;;5.43;1.73;;;5.30;99.90;;;;;;6344184;27;20122;-86
2024/01/05 04:13:18;;;;;;;4.53;1.85;;;5.40;99.90;;;;;;6334750;28;20051;-86
2024/01/05 04:16:19;;;;;;;5.47;1.85;;;5.40;99.90;;;;;;6350288;27;20062;-87
2024/01/05 04:19:21;;;;;;;4.47;2.00;;;5.40;99.90;;;;;;6332359;28;20051;-85
2024/01/05 04:22:23;;;;;;;7.22;2.15;;;5.40;99.90;;;;;;6348377;28;20085;-86
2024/01/05 04:25:24;;;;;;;6.78;2.10;;;5.40;99.90;;;;;;6308826;28;20055;-87
2024/01/05 04:28:26;;;;;;;5.47;2.25;;;5.50;99.90;;;;;;6344938;28;20495;-87
2024/01/05 04:31:27;;;;;;;5.53;2.40;;;5.40;99.90;;;;;;6329563;28;20046;-87
2024/01/05 04:34:29;;;;;;;5.57;2.40;;;5.50;99.90;;;;;;6355500;27;20413;-87
2024/01/05 04:37:31;;;;;;;8.05;2.60;;;5.50;99.90;;;;;;6335051;28;20060;-87
2024/01/05 04:40:33;;;;;;;7.88;3.50;;;5.50;99.90;;;;;;6311016;28;20064;-88
2024/01/05 04:43:36;;;;;;;10.15;3.55;;;5.50;99.90;;;;;;6320286;28;20056;-84
2024/01/05 04:46:38;;;;;;;9.82;4.03;;;5.60;99.90;;;;;;6330687;28;20504;-86
2024/01/05 04:49:39;;;;;;;13.70;4.60;;;5.60;99.90;;;;;;6333320;28;20056;-88
2024/01/05 04:52:42;;;;;;;10.80;4.55;;;5.60;99.90;;;;;;6320018;28;20054;-86
2024/01/05 04:55:44;;;;;;;13.02;5.65;;;5.70;99.90;;;;;;6330989;28;20083;-86
2024/01/05 04:58:45;;;;;;;14.77;5.70;;;5.70;99.90;;;;;;6330226;28;20067;-86
2024/01/05 05:01:47;;;;;;;16.70;6.55;;;5.80;99.90;;;;;;6317472;28;20056;-87
2024/01/05 05:04:49;;;;;;;20.73;7.32;;;5.70;99.90;;;;;;6326398;28;20427;-88
2024/01/05 05:07:50;;;;;;;18.65;7.75;;;5.80;99.90;;;;;;6341741;27;20177;-87
2024/01/05 05:10:52;;;;;;;17.08;7.70;;;5.80;99.90;;;;;;6336114;28;20051;-87
2024/01/05 05:13:54;;;;;;;21.27;8.38;;;5.80;99.90;;;;;;6326594;28;20043;-87
2024/01/05 05:16:55;;;;;;;19.52;8.60;;;5.90;99.90;;;;;;6327878;28;20055;-87
2024/01/05 05:19:57;;;;;;;20.10;8.57;;;5.90;99.90;;;;;;6341541;28;20059;-87
2024/01/05 05:22:59;;;;;;;19.80;7.68;;;5.80;99.90;;;;;;6346875;28;20071;-87
2024/01/05 05:26:00;;;;;;;26.42;8.82;;;5.80;99.90;;;;;;6340623;28;20051;-87
2024/01/05 05:29:02;;;;;;;22.25;8.18;;;5.80;99.90;;;;;;6352915;28;20059;-87
2024/01/05 05:32:04;;;;;;;25.10;8.82;;;5.80;99.90;;;;;;6328456;28;20100;-87
2024/01/05 05:35:06;;;;;;;20.80;9.18;;;5.90;99.90;;;;;;6340642;28;20098;-86
2024/01/05 05:38:07;;;;;;;21.85;9.07;;;5.80;99.90;;;;;;6342890;28;20054;-88
2024/01/05 05:41:09;;;;;;;28.73;9.18;;;5.80;99.90;;;;;;6332876;28;20062;-86
2024/01/05 05:44:11;;;;;;;27.67;10.88;;;5.80;99.90;;;;;;6325796;28;20051;-87
2024/01/05 05:47:12;;;;;;;31.90;10.00;;;5.80;99.90;;;;;;6345049;28;20047;-87
2024/01/05 05:50:14;;;;;;;27.90;9.82;;;5.80;99.90;;;;;;6327940;28;20062;-88
2024/01/05 05:53:16;;;;;;;28.17;10.73;;;5.80;99.90;;;;;;6326841;28;20139;-88
2024/01/05 05:56:18;;;;;;;25.30;9.98;;;5.80;99.90;;;;;;6319546;28;20495;-86
2024/01/05 05:59:19;;;;;;;27.17;9.65;;;5.80;99.90;;;;;;6311111;28;20056;-86
2024/01/05 06:02:21;;;;;;;29.67;9.88;;;5.90;99.90;;;;;;6323343;28;20616;-86
2024/01/05 06:05:23;;;;;;;24.55;10.07;;;5.80;99.90;;;;;;6300866;28;20056;-86
2024/01/05 06:08:24;;;;;;;27.83;9.77;;;5.80;99.90;;;;;;6343886;28;20105;-87
2024/01/05 06:11:26;;;;;;;28.45;10.38;;;5.90;99.90;;;;;;6301940;28;20064;-88
2024/01/05 06:14:28;;;;;;;26.60;9.25;;;5.90;99.90;;;;;;6315148;28;20056;-87
2024/01/05 06:17:30;;;;;;;24.02;9.60;;;5.80;99.90;;;;;;6330062;28;20048;-86
2024/01/05 06:20:32;;;;;;;23.40;9.40;;;6.00;99.90;;;;;;6304540;28;20047;-86
2024/01/05 06:23:33;;;;;;;26.52;9.68;;;5.80;99.90;;;;;;6307504;28;20053;-86
2024/01/05 06:26:35;;;;;;;26.10;9.18;;;5.90;99.90;;;;;;6289049;28;20059;-86
2024/01/05 06:29:37;;;;;;;24.80;8.82;;;5.90;99.90;;;;;;6330319;28;20483;-87
2024/01/05 06:32:38;;;;;;;24.58;9.30;;;5.90;99.90;;;;;;6314521;28;20048;-86
2024/01/05 06:35:40;;;;;;;25.33;8.73;;;5.90;99.90;;;;;;6318709;28;20055;-86
2024/01/05 06:38:42;;;;;;;26.85;8.57;;;5.90;99.90;;;;;;6312822;28;20048;-86
2024/01/05 06:41:43;;;;;;;22.80;8.85;;;5.90;99.90;;;;;;6316334;28;20055;-85
2024/01/05 06:44:45;;;;;;;22.40;8.82;;;5.90;99.90;;;;;;6311039;28;20051;-86
2024/01/05 06:47:47;;;;;;;18.60;7.63;;;5.90;99.90;;;;;;6328318;28;20077;-86
2024/01/05 06:50:50;;;;;;;24.55;8.48;;;5.90;99.90;;;;;;6298280;28;20048;-85
2024/01/05 06:53:53;;;;;;;25.13;8.75;;;5.90;99.90;;;;;;6323207;28;20048;-87
2024/01/05 06:56:55;;;;;;;25.15;8.63;;;5.90;99.90;;;;;;6315886;28;20048;-85
2024/01/05 06:59:57;;;;;;;22.35;8.50;;;5.90;99.90;;;;;;6327237;28;20107;-85
2024/01/05 07:02:59;;;;;;;21.98;8.38;;;5.80;99.90;;;;;;6331851;28;20063;-84
2024/01/05 07:06:00;;;;;;;21.92;8.25;;;5.90;99.90;;;;;;6316713;28;20052;-85
2024/01/05 07:09:02;;;;;;;22.27;8.43;;;5.90;99.90;;;;;;6306819;28;20438;-85
2024/01/05 07:12:04;;;;;;;24.77;8.68;;;5.90;99.90;;;;;;6315016;28;20048;-84
2024/01/05 07:15:06;;;;;;;23.40;7.90;;;5.90;99.90;;;;;;6340867;28;20052;-84
2024/01/05 07:18:08;;;;;;;19.27;8.02;;;5.90;99.90;;;;;;6335896;28;20047;-85
2024/01/05 07:21:10;;;;;;;19.08;8.60;;;5.90;99.90;;;;;;6315852;28;20056;-85
2024/01/05 07:24:11;;;;;;;19.48;8.13;;;5.90;99.90;;;;;;6346505;28;20052;-84
2024/01/05 07:27:15;;;;;;;21.70;8.00;;;5.90;99.90;;;;;;6304699;28;20060;-85
2024/01/05 07:30:16;;;;;;;23.23;8.38;;;5.90;99.90;;;;;;6326316;28;20487;-84
2024/01/05 07:33:18;;;;;;;20.95;8.18;;;6.00;99.90;;;;;;6329712;28;20056;-86
2024/01/05 07:36:20;;;;;;;21.00;7.93;;;6.00;99.90;;;;;;6329020;28;20138;-83
2024/01/05 07:39:22;;;;;;;24.30;8.32;;;5.90;99.90;;;;;;6328327;28;20054;-84
2024/01/05 07:42:27;;;;;;;22.05;8.50;;;6.00;99.90;;;;;;6326679;28;20051;-84
2024/01/05 07:45:29;;;;;;;24.50;8.73;;;5.90;99.90;;;;;;6328552;28;20101;-84
2024/01/05 07:48:31;;;;;;;20.75;8.27;;;6.00;99.90;;;;;;6347602;28;20093;-83
2024/01/05 07:51:33;;;;;;;18.98;7.65;;;6.00;99.90;;;;;;6347575;28;20055;-84
2024/01/05 07:54:35;;;;;;;23.92;8.65;;;5.90;99.90;;;;;;6329975;28;20073;-83
2024/01/05 07:57:36;;;;;;;20.60;7.68;;;6.00;99.90;;;;;;6331474;28;20063;-83
2024/01/05 08:00:38;;;;;;;20.35;8.10;;;6.00;99.90;;;;;;6348199;28;20126;-84
2024/01/05 08:03:40;;;;;;;30.90;8.05;;;6.00;99.90;;;;;;6311389;22;20076;-91
2024/01/05 08:06:42;;;;;;;21.77;7.70;;;6.00;99.90;;;;;;6259325;28;20057;-92
2024/01/05 08:09:44;;;;;;;23.48;7.80;;;6.00;99.90;;;;;;6288080;28;20045;-93
2024/01/05 08:12:46;;;;;;;20.73;7.70;;;6.00;99.90;;;;;;6270119;28;20053;-89
2024/01/05 08:15:48;;;;;;;23.80;7.47;;;5.90;99.90;;;;;;6242220;28;20065;-92
2024/01/05 08:18:50;;;;;;;23.25;7.53;;;6.00;99.90;;;;;;6278899;28;20405;-93
2024/01/05 08:21:52;;;;;;;21.52;7.50;;;6.00;99.90;;;;;;6377262;22;20059;-93
2024/01/05 08:24:54;;;;;;;17.65;7.78;;;6.00;99.90;;;;;;6366430;28;20047;-95
2024/01/05 08:27:58;;;;;;;20.10;6.53;;;6.00;99.90;;;;;;6374374;27;20047;-93
2024/01/05 08:31:00;;;;;;;23.90;7.50;;;6.00;99.90;;;;;;6662011;22;20045;-94
2024/01/05 08:34:03;;;;;;;17.48;6.72;;;6.00;99.90;;;;;;6274219;28;20048;-91
2024/01/05 08:37:05;;;;;;;16.35;6.50;;;6.00;99.90;;;;;;6249562;28;20061;-93
2024/01/05 08:40:07;;;;;;;17.98;6.47;;;6.00;99.90;;;;;;6273344;28;20053;-92
2024/01/05 08:43:10;;;;;;;20.90;6.72;;;6.10;99.90;;;;;;6390388;22;20060;-91
2024/01/05 08:46:12;;;;;;;18.05;6.47;;;6.10;99.90;;;;;;6262345;28;20056;-91
2024/01/05 08:49:13;;;;;;;16.55;6.28;;;6.20;99.90;;;;;;6255870;28;20140;-88
2024/01/05 08:52:15;;;;;;;19.08;6.53;;;6.20;99.90;;;;;;6254976;28;20124;-88
2024/01/05 08:55:18;;;;;;;19.90;6.40;;;6.20;99.90;;;;;;6263801;28;20060;-92
2024/01/05 08:58:20;;;;;;;17.05;5.97;;;6.10;99.90;;;;;;6247461;28;20045;-92
2024/01/05 09:01:22;;;;;;;18.02;6.57;;;6.20;99.90;;;;;;6257602;28;20053;-94
2024/01/05 09:04:24;;;;;;;13.27;5.82;;;6.20;99.90;;;;;;6244048;28;20053;-87
2024/01/05 09:07:25;;;;;;;19.52;5.75;;;6.10;99.90;;;;;;6228908;28;20359;-90
2024/01/05 09:10:27;;;;;;;15.98;5.70;;;6.20;99.90;;;;;;6255504;28;20084;-90
2024/01/05 09:13:30;;;;;;;16.75;5.85;;;6.20;99.90;;;;;;6234426;28;20049;-91
2024/01/05 09:16:32;;;;;;;17.90;5.82;;;6.10;99.90;;;;;;6249786;28;20045;-88
2024/01/05 09:19:33;;;;;;;18.85;6.07;;;6.20;99.90;;;;;;6266828;28;20052;-89
2024/01/05 09:22:35;;;;;;;16.33;5.18;;;6.20;99.90;;;;;;6257247;28;20055;-90
2024/01/05 09:25:37;;;;;;;15.95;5.43;;;6.40;99.90;;;;;;6268626;28;20048;-90
2024/01/05 09:28:42;;;;;;;13.02;4.93;;;6.30;99.90;;;;;;6274093;28;20060;-93
2024/01/05 09:31:43;;;;;;;13.25;4.85;;;6.30;99.90;;;;;;6253751;28;20125;-91
2024/01/05 09:34:45;;;;;;;14.20;4.82;;;6.30;99.90;;;;;;6255150;28;20067;-94
2024/01/05 09:37:47;;;;;;;15.10;5.38;;;6.30;99.90;;;;;;6261641;28;20112;-90
2024/01/05 09:40:54;;;;;;;15.77;5.30;;;6.30;99.90;;;;;;6263559;28;20060;-95
2024/01/05 09:43:55;;;;;;;14.95;4.82;;;6.40;99.90;;;;;;6269539;28;20067;-91
2024/01/05 09:46:57;;;;;;;16.25;4.93;;;6.40;99.90;;;;;;6268250;28;20072;-92
2024/01/05 09:49:59;;;;;;;22.98;9.63;;;6.40;99.90;;;;;;6276829;28;20049;-88
2024/01/05 09:53:01;;;;;;;20.40;9.52;;;6.50;99.90;;;;;;6279280;28;20133;-90
2024/01/05 09:56:03;;;;;;;14.20;5.38;;;6.50;99.90;;;;;;6281951;28;20083;-93
2024/01/05 09:59:06;;;;;;;14.15;6.18;;;6.50;99.90;;;;;;6270544;28;20500;-87
2024/01/05 10:02:08;;;;;;;13.77;5.30;;;6.60;99.90;;;;;;6277935;28;20041;-91
2024/01/05 10:05:10;;;;;;;15.00;5.22;;;6.60;99.90;;;;;;6283354;28;20075;-91
2024/01/05 10:08:13;;;;;;;14.52;5.60;;;6.60;99.90;;;;;;6282211;28;20051;-91
2024/01/05 10:11:14;;;;;;;16.98;5.10;;;6.70;99.90;;;;;;6268331;28;20057;-92
2024/01/05 10:14:18;;;;;;;20.63;5.63;;;6.70;99.90;;;;;;6272052;28;20049;-91
2024/01/05 10:17:20;;;;;;;12.95;4.95;;;6.70;99.90;;;;;;6280643;28;20044;-91
2024/01/05 10:20:21;;;;;;;11.93;5.15;;;6.70;99.90;;;;;;6279689;28;20075;-92
2024/01/05 10:23:23;;;;;;;12.73;5.05;;;6.70;99.90;;;;;;6283894;28;20053;-91
2024/01/05 10:26:25;;;;;;;13.35;5.60;;;6.80;99.90;;;;;;6279691;28;20053;-91
2024/01/05 10:29:27;;;;;;;11.38;4.82;;;6.80;99.90;;;;;;6269200;28;20049;-88
2024/01/05 10:32:33;;;;;;;10.00;5.13;;;6.80;99.90;;;;;;6265656;28;20131;-91
2024/01/05 10:35:35;;;;;;;16.25;6.00;;;6.90;99.90;;;;;;6262774;28;20048;-93
2024/01/05 10:38:37;;;;;;;18.35;7.68;;;6.80;99.90;;;;;;6252986;28;20060;-89
2024/01/05 10:41:39;;;;;;;18.30;9.10;;;6.80;99.90;;;;;;6252138;28;20127;-90
2024/01/05 10:44:41;;;;;;;15.27;6.88;;;6.90;99.90;;;;;;6272469;28;20076;-92
2024/01/05 10:47:42;;;;;;;38.90;23.75;;;6.90;99.90;;;;;;6250360;28;20416;-94
2024/01/05 10:50:48;;;;;;;17.55;8.88;;;7.00;99.90;;;;;;6274502;28;20067;-92
2024/01/05 10:53:50;;;;;;;13.52;5.43;;;7.00;99.90;;;;;;6272892;28;20052;-91
2024/01/05 10:56:53;;;;;;;14.35;6.85;;;7.10;99.90;;;;;;6294547;28;20055;-87
2024/01/05 10:59:55;;;;;;;16.67;6.50;;;7.10;99.90;;;;;;6253712;28;20053;-81
2024/01/05 11:02:57;;;;;;;17.38;6.93;;;7.20;99.90;;;;;;6271614;28;20052;-80
2024/01/05 11:05:59;;;;;;;12.68;5.75;;;7.30;99.90;;;;;;6271245;28;20515;-84
2024/01/05 11:09:01;;;;;;;14.07;6.75;;;7.40;99.90;;;;;;6275679;28;20057;-85
2024/01/05 11:12:02;;;;;;;14.70;6.35;;;7.50;99.90;;;;;;6237886;28;20135;-86
2024/01/05 11:15:04;;;;;;;12.60;6.32;;;7.60;99.90;;;;;;6248677;28;20055;-90
2024/01/05 11:18:06;;;;;;;16.35;7.60;;;7.60;99.90;;;;;;6263911;28;20479;-84
2024/01/05 11:21:08;;;;;;;14.70;6.40;;;7.70;99.90;;;;;;6270084;28;20057;-82
2024/01/05 11:24:09;;;;;;;14.45;7.38;;;7.80;99.90;;;;;;6255025;28;20480;-81
2024/01/05 11:27:11;;;;;;;16.02;6.53;;;7.90;99.90;;;;;;6254942;28;20053;-82
2024/01/05 11:30:13;;;;;;;15.02;7.18;;;7.90;99.90;;;;;;6251735;28;20456;-85
2024/01/05 11:33:15;;;;;;;15.00;7.57;;;7.90;99.90;;;;;;6258037;28;20053;-86
2024/01/05 11:36:17;;;;;;;12.15;6.00;;;7.80;99.90;;;;;;6248368;28;20109;-91
2024/01/05 11:39:18;;;;;;;14.18;6.88;;;7.80;99.90;;;;;;6266888;28;20060;-82
2024/01/05 11:42:20;;;;;;;18.40;9.10;;;7.80;99.90;;;;;;6272491;28;20053;-84
2024/01/05 11:45:22;;;;;;;15.10;8.38;;;7.90;99.90;;;;;;6255179;28;20088;-83
2024/01/05 11:48:24;;;;;;;20.20;12.55;;;7.90;99.90;;;;;;6276535;28;20049;-86
2024/01/05 11:51:25;;;;;;;13.75;6.97;;;7.90;99.90;;;;;;6255926;28;20052;-91
2024/01/05 11:54:27;;;;;;;17.05;8.50;;;7.90;99.90;;;;;;6272166;28;20071;-83
2024/01/05 11:57:29;;;;;;;14.82;7.43;;;7.90;99.90;;;;;;6259440;28;20056;-80
2024/01/05 12:00:31;;;;;;;17.17;9.13;;;8.00;99.90;;;;;;6268918;28;20053;-81
2024/01/05 12:03:32;;;;;;;10.55;6.70;;;8.00;99.90;;;;;;6271620;28;20095;-82
2024/01/05 12:06:34;;;;;;;11.05;5.18;;;8.00;99.90;;;;;;6283150;28;20048;-82
2024/01/05 12:09:36;;;;;;;14.23;5.13;;;8.10;99.90;;;;;;6264448;28;20053;-82
2024/01/05 12:12:38;;;;;;;13.80;7.95;;;8.10;99.90;;;;;;6244401;28;20063;-83
2024/01/05 12:15:39;;;;;;;14.00;5.70;;;8.20;99.90;;;;;;6274172;28;20224;-81
2024/01/05 12:18:56;;;;;;;13.07;5.65;;;8.30;99.90;;;;;;6260422;28;20060;-84
2024/01/05 12:21:58;;;;;;;16.92;7.30;;;8.20;99.90;;;;;;6267309;28;20107;-84
2024/01/05 12:25:00;;;;;;;10.18;5.53;;;8.30;99.90;;;;;;6258020;28;20057;-82
2024/01/05 12:28:01;;;;;;;12.63;5.53;;;8.30;99.90;;;;;;6246989;28;20047;-82
2024/01/05 12:31:04;;;;;;;12.40;6.15;;;8.30;99.90;;;;;;6262574;28;20554;-85
2024/01/05 12:34:06;;;;;;;10.63;4.93;;;8.30;99.90;;;;;;6259366;28;20059;-91
2024/01/05 12:37:08;;;;;;;11.00;5.57;;;8.40;99.90;;;;;;6256055;28;20064;-84
2024/01/05 12:40:10;;;;;;;11.10;5.90;;;8.40;99.90;;;;;;6265528;28;20493;-84
2024/01/05 12:43:12;;;;;;;10.77;5.03;;;8.40;99.90;;;;;;6260043;28;20053;-83
2024/01/05 12:46:14;;;;;;;11.25;4.57;;;8.30;99.90;;;;;;6268316;28;20112;-84
2024/01/05 12:49:16;;;;;;;9.50;4.50;;;8.30;99.90;;;;;;6272488;28;20238;-86
2024/01/05 12:52:18;;;;;;;10.15;4.25;;;8.30;99.90;;;;;;6251968;28;20087;-86
2024/01/05 12:55:19;;;;;;;10.63;4.40;;;8.30;99.90;;;;;;6271759;28;20054;-87
2024/01/05 12:58:21;;;;;;;10.15;4.45;;;8.30;99.90;;;;;;6261027;28;20052;-87
2024/01/05 13:01:26;;;;;;;10.93;4.30;;;8.20;99.90;;;;;;6251692;28;20432;-86
2024/01/05 13:04:28;;;;;;;12.07;4.63;;;8.20;99.90;;;;;;6268269;28;20527;-87
2024/01/05 13:07:34;;;;;;;9.43;4.18;;;8.30;99.90;;;;;;6242651;28;20095;-88
2024/01/05 13:10:36;;;;;;;12.75;4.82;;;8.30;99.90;;;;;;6284764;28;20057;-88
2024/01/05 13:13:41;;;;;;;9.88;4.55;;;8.30;99.90;;;;;;6264682;28;20147;-86
2024/01/05 13:16:42;;;;;;;12.02;4.75;;;8.30;99.90;;;;;;6281641;28;20056;-87
2024/01/05 13:19:44;;;;;;;12.90;4.75;;;8.20;99.90;;;;;;6274134;28;20059;-87
2024/01/05 13:22:46;;;;;;;10.20;4.50;;;8.20;99.90;;;;;;6261927;28;20195;-87
2024/01/05 13:25:47;;;;;;;16.35;7.88;;;8.20;99.90;;;;;;6258655;28;20053;-87
2024/01/05 13:28:49;;;;;;;12.35;6.55;;;8.10;99.90;;;;;;6267857;28;20055;-88
2024/01/05 13:31:51;;;;;;;12.10;5.32;;;8.10;99.90;;;;;;6269957;28;20049;-86
2024/01/05 13:34:52;;;;;;;10.00;4.82;;;8.10;99.90;;;;;;6251372;28;20061;-86
2024/01/05 13:37:54;;;;;;;13.18;5.18;;;8.10;99.90;;;;;;6270653;28;20060;-86
2024/01/05 13:40:56;;;;;;;11.38;5.15;;;8.00;99.90;;;;;;6274822;28;20064;-87
2024/01/05 13:43:58;;;;;;;11.02;5.10;;;8.00;99.90;;;;;;6264559;28;20455;-87
2024/01/05 13:46:59;;;;;;;8.77;4.82;;;7.90;99.90;;;;;;6273123;28;20059;-86
2024/01/05 13:50:01;;;;;;;12.63;5.03;;;7.90;99.90;;;;;;6279287;28;20471;-87
2024/01/05 13:53:03;;;;;;;11.77;5.10;;;7.90;99.90;;;;;;6275365;28;20056;-87
2024/01/05 13:56:05;;;;;;;12.82;5.72;;;7.90;99.90;;;;;;6272038;28;20044;-86
2024/01/05 13:59:07;;;;;;;12.38;5.30;;;7.90;99.90;;;;;;6260337;28;20053;-86
2024/01/05 14:02:09;;;;;;;10.30;4.88;;;7.90;99.90;;;;;;6272158;28;20116;-88
2024/01/05 14:05:11;;;;;;;11.15;4.97;;;7.90;99.90;;;;;;6252274;28;20052;-85
2024/01/05 14:08:12;;;;;;;11.27;5.30;;;7.90;99.90;;;;;;6274838;28;20056;-86
2024/01/05 14:11:15;;;;;;;11.13;4.88;;;7.80;99.90;;;;;;6273825;28;20059;-86
2024/01/05 14:14:17;;;;;;;10.85;4.93;;;7.80;99.90;;;;;;6263302;28;20064;-85
2024/01/05 14:17:19;;;;;;;13.32;5.22;;;7.80;99.90;;;;;;6274978;28;20052;-85
2024/01/05 14:20:20;;;;;;;10.65;5.10;;;7.80;99.90;;;;;;6277326;28;20390;-85
2024/01/05 14:23:22;;;;;;;10.68;5.00;;;7.80;99.90;;;;;;6272092;28;20450;-86
2024/01/05 14:26:27;;;;;;;10.90;4.97;;;7.80;99.90;;;;;;6272252;28;20049;-85
2024/01/05 14:29:29;;;;;;;12.50;5.70;;;7.80;99.90;;;;;;6263694;28;20524;-86
2024/01/05 14:32:31;;;;;;;14.00;5.75;;;7.80;99.90;;;;;;6272125;28;20405;-85
2024/01/05 14:35:33;;;;;;;12.73;5.28;;;7.80;99.90;;;;;;6252810;28;20056;-85
2024/01/05 14:38:34;;;;;;;11.82;4.70;;;7.90;99.90;;;;;;6264644;28;20059;-85
2024/01/05 14:41:36;;;;;;;11.90;5.15;;;7.80;99.90;;;;;;6271916;28;20104;-87
2024/01/05 14:44:39;;;;;;;12.57;5.28;;;7.80;99.90;;;;;;6252743;28;20526;-88
2024/01/05 14:47:41;;;;;;;10.57;4.90;;;7.80;99.90;;;;;;6278242;28;20186;-88
2024/01/05 14:50:43;;;;;;;10.32;4.63;;;7.80;99.90;;;;;;6250717;28;20057;-92
2024/01/05 14:53:45;;;;;;;11.52;5.10;;;7.80;99.90;;;;;;6271161;28;20049;-86
2024/01/05 14:56:46;;;;;;;9.50;4.90;;;7.80;99.90;;;;;;6254789;28;20060;-90
2024/01/05 14:59:48;;;;;;;10.38;5.45;;;7.80;99.90;;;;;;6270147;28;20044;-91
2024/01/05 15:02:50;;;;;;;13.43;5.28;;;7.90;99.90;;;;;;6271649;28;20051;-85
2024/01/05 15:05:51;;;;;;;11.23;5.05;;;7.80;99.90;;;;;;6272292;28;20045;-87
2024/01/05 15:08:53;;;;;;;13.90;5.72;;;7.90;99.90;;;;;;6271429;28;20045;-85
2024/01/05 15:11:55;;;;;;;11.93;5.03;;;7.80;99.90;;;;;;6272939;28;20052;-91
2024/01/05 15:14:56;;;;;;;10.93;4.95;;;7.80;99.90;;;;;;6252483;28;20055;-90
2024/01/05 15:18:05;;;;;;;10.23;4.72;;;7.90;99.90;;;;;;6257358;28;20051;-93
2024/01/05 15:21:07;;;;;;;14.52;5.68;;;7.90;99.90;;;;;;6257588;28;20067;-90
2024/01/05 15:24:09;;;;;;;12.07;5.45;;;7.90;99.90;;;;;;6255780;28;20068;-88
2024/01/05 15:27:12;;;;;;;12.65;5.18;;;7.90;99.90;;;;;;6276138;28;20143;-91
2024/01/05 15:30:15;;;;;;;11.88;5.32;;;7.90;99.90;;;;;;6256491;28;20045;-89
2024/01/05 15:33:17;;;;;;;10.70;4.88;;;7.90;99.90;;;;;;6246542;28;20453;-88
2024/01/05 15:36:21;;;;;;;18.25;7.35;;;7.80;99.90;;;;;;6254842;28;20056;-88
2024/01/05 15:39:23;;;;;;;12.30;6.35;;;7.80;99.90;;;;;;6227656;28;20057;-87
2024/01/05 15:42:25;;;;;;;8.57;5.00;;;7.70;99.90;;;;;;6263254;28;20061;-91
2024/01/05 15:45:28;;;;;;;11.48;4.90;;;7.70;99.90;;;;;;6271128;28;20064;-84
2024/01/05 15:48:30;;;;;;;11.27;4.80;;;7.70;99.90;;;;;;6268444;28;20630;-82
2024/01/05 15:51:35;;;;;;;8.73;4.53;;;7.70;99.90;;;;;;6275862;28;20097;-84